This is the latest recevied weather packets stored in our database for station/object ED1ZAI-14. If no packets are shown the sender has not sent any weather packets the latest 10 day(s).
| Time | Temp. | Humidity | Pressure | Rain* | Wind** | Luminosity | Snow |
|---|---|---|---|---|---|---|---|
| 1777676746 | 6.11° C | 100% | 1043.1 hPa | - | - | - | - |
| 1777674946 | 6.11° C | 100% | 1043 hPa | - | - | - | - |
| 1777673145 | 5.56° C | 100% | 1043.2 hPa | - | - | - | - |
| 1777671345 | 6.11° C | 100% | 1043.4 hPa | - | - | - | - |
| 1777669545 | 6.67° C | 100% | 1043.3 hPa | - | - | - | - |
| 1777667745 | 6.67° C | 100% | 1043.6 hPa | - | - | - | - |
| 1777665945 | 6.67° C | 100% | 1043.3 hPa | - | - | - | - |
| 1777662352 | 6.11° C | 100% | 1042.9 hPa | - | - | - | - |
| 1777660545 | 6.67° C | 100% | 1042.5 hPa | - | - | - | - |
| 1777658747 | 7.78° C | 100% | 1042.1 hPa | - | - | - | - |
| 1777657633 | 8.89° C | 100% | 1042.2 hPa | - | - | - | - |
| 1777655835 | 8.33° C | 100% | 1042.2 hPa | - | - | - | - |
| 1777654029 | 8.33° C | 100% | 1042 hPa | - | - | - | - |
| 1777652228 | 9.44° C | 100% | 1042 hPa | - | - | - | - |
| 1777650428 | 13.89° C | 68% | 1041.6 hPa | - | - | - | - |
| 1777648628 | 11.67° C | 84% | 1041.6 hPa | - | - | - | - |
| 1777646828 | 13.89° C | 69% | 1041.6 hPa | - | - | - | - |
| 1777645028 | 12.78° C | 85% | 1041.7 hPa | - | - | - | - |
| 1777643228 | 13.33° C | 86% | 1041.9 hPa | - | - | - | - |
| 1777641428 | 12.22° C | 95% | 1042 hPa | - | - | - | - |
| 1777639628 | 13.33° C | 100% | 1042 hPa | - | - | - | - |
| 1777637828 | 12.22° C | 100% | 1042.1 hPa | - | - | - | - |
| 1777636028 | 11.67° C | 100% | 1042.1 hPa | - | - | - | - |
| 1777634228 | 10° C | 100% | 1042.3 hPa | - | - | - | - |
| 1777632428 | 10° C | 100% | 1042.5 hPa | - | - | - | - |
* Rain since midnight (hover to see other rain measurements)
** Current wind speed in m/s (hover to see current wind gust speed)